Thursday, April 19, 2018, 4:25 PM CDT
Back to Local

KSLN, Salina Municipal Airport

Location: Salina, KS, United States Lat: 38.783
Local Time: 4:25 PM CDT (21:25 GMT) Lon: -97.65
Time Zone: US/Central Elev: 1272 ft

Show me the last for .
Show Decoded

2018-04-19 15:53 METAR KSLN 192053Z 09010G17KT 10SM CLR 15/M02 A3038 RMK AO2 SLP292 T01501017
                 56035 =
2018-04-19 14:53 METAR KSLN 191953Z 10008KT 10SM CLR 14/M01 A3041 RMK AO2 SLP302 T01391011 =
2018-04-19 13:53 METAR KSLN 191853Z 01007KT 10SM CLR 13/M01 A3044 RMK AO2 SLP313 T01331011 =
2018-04-19 12:53 METAR KSLN 191753Z 00000KT 10SM CLR 11/M02 A3048 RMK AO2 SLP329 T01111017 10122
                 21011 58001 =
2018-04-19 11:53 METAR KSLN 191653Z 04008KT 360V070 10SM CLR 11/M01 A3049 RMK AO2 SLP331
                 T01061011 =
2018-04-19 10:53 METAR KSLN 191553Z 01011KT 10SM CLR 09/M01 A3048 RMK AO2 SLP327 T00941011 =
2018-04-19 09:53 METAR KSLN 191453Z 04009KT 10SM CLR 07/M02 A3049 RMK AO2 SLP330 T00721017 53018
                 =
2018-04-19 08:53 METAR KSLN 191353Z 35009KT 10SM CLR 05/00 A3047 RMK AO2 SLP323 T00500000 =
2018-04-19 07:53 METAR KSLN 191253Z 35006KT 10SM CLR 01/M02 A3044 RMK AO2 SLP314 T00111017 =
2018-04-19 06:53 METAR KSLN 191153Z 32006KT 10SM CLR M01/M03 A3043 RMK AO2 SLP311 T10111033 10022
                 21011 51029 =
2018-04-19 05:53 METAR KSLN 191053Z AUTO 30008KT 10SM CLR 00/M03 A3041 RMK AO2 SLP301 T00001028 =
2018-04-19 04:53 METAR KSLN 190953Z AUTO 28008KT 10SM CLR 01/M02 A3037 RMK AO2 SLP288 T00061022 =
2018-04-19 03:53 METAR KSLN 190853Z AUTO 28007KT 10SM CLR 01/M03 A3034 RMK AO2 SLP279 T00061033
                 53011 =
2018-04-19 02:53 METAR KSLN 190753Z AUTO 30004KT 10SM CLR 01/M03 A3032 RMK AO2 SLP271 T00111028 =
2018-04-19 01:53 METAR KSLN 190653Z AUTO 30005KT 10SM CLR 02/M03 A3032 RMK AO2 SLP270 T00221028 =
2018-04-19 00:53 METAR KSLN 190553Z AUTO 30004KT 10SM CLR 02/M03 A3031 RMK AO2 SLP268 T00221028
                 10128 20022 401500022 51016 =
2018-04-18 23:53 METAR KSLN 190453Z AUTO 34005KT 10SM CLR 04/M02 A3030 RMK AO2 SLP263 T00391022 =
2018-04-18 22:53 METAR KSLN 190353Z 02006KT 10SM CLR 07/M01 A3029 RMK AO2 SLP258 T00671011 =
2018-04-18 21:53 METAR KSLN 190253Z 01008KT 10SM CLR 06/M01 A3026 RMK AO2 SLP250 T00611011 53023
                 =
2018-04-18 20:53 METAR KSLN 190153Z 36013KT 10SM CLR 08/M01 A3023 RMK AO2 SLP241 T00831011 =
2018-04-18 19:53 METAR KSLN 190053Z 35017KT 10SM CLR 11/M01 A3020 RMK AO2 PK WND 34028/2356
                 SLP230 T01061006 =
2018-04-18 18:53 METAR KSLN 182353Z 34020G30KT 10SM CLR 13/M01 A3019 RMK AO2 PK WND 36030/2307
                 SLP224 T01281011 10150 20122 53015 =
2018-04-18 17:53 METAR KSLN 182253Z 35024G30KT 10SM FEW060 14/M01 A3016 RMK AO2 PK WND 33033/2219
                 SLP212 T01441011 =
2018-04-18 16:53 METAR KSLN 182153Z 34024G31KT 10SM SCT060 14/M02 A3014 RMK AO2 PK WND 34035/2133
                 SLP206 T01441017 =

Support USWX by starting your Amazon purchase here.